createdAt,value
2018-02-10T00:01:06.145Z,45.37
2018-02-10T00:03:33.768Z,43.43
2018-02-10T00:06:01.396Z,46.77
2018-02-10T00:08:28.958Z,42.47
2018-02-10T00:10:56.544Z,56.23
2018-02-10T00:13:24.545Z,49.27
2018-02-10T00:15:52.163Z,44.23
2018-02-10T00:18:19.752Z,42.77
2018-02-10T00:20:47.330Z,42.90
2018-02-10T00:23:14.957Z,44.80
2018-02-10T00:25:42.575Z,47.47
2018-02-10T00:28:10.131Z,45.20
2018-02-10T00:30:37.755Z,41.57
2018-02-10T00:33:05.368Z,45.37
2018-02-10T00:35:32.934Z,43.87
2018-02-10T00:38:00.531Z,41.80
2018-02-10T00:40:28.154Z,43.43
2018-02-10T00:42:56.127Z,43.57
2018-02-10T00:45:23.731Z,44.10
2018-02-10T00:47:51.339Z,41.87
2018-02-10T00:50:18.917Z,40.97
2018-02-10T00:52:46.522Z,43.03
2018-02-10T00:55:14.086Z,48.03
2018-02-10T00:57:41.931Z,33.87
2018-02-10T01:00:09.523Z,43.97
2018-02-10T01:02:37.165Z,45.67
2018-02-10T01:05:04.800Z,43.43
2018-02-10T01:07:32.385Z,47.20
2018-02-10T01:09:59.979Z,44.53
2018-02-10T01:12:27.586Z,45.13
2018-02-10T01:14:55.163Z,48.93
2018-02-10T01:17:22.765Z,43.63
2018-02-10T01:19:50.742Z,40.93
2018-02-10T01:22:18.638Z,40.07
2018-02-10T01:24:46.243Z,47.73
2018-02-10T01:27:13.856Z,41.27
2018-02-10T01:29:41.450Z,50.83
2018-02-10T01:32:09.239Z,45.20
2018-02-10T01:34:36.837Z,41.93
2018-02-10T01:37:04.446Z,43.93
2018-02-10T01:39:32.049Z,38.37
2018-02-10T01:41:59.648Z,43.13
2018-02-10T01:44:27.244Z,46.03
2018-02-10T01:46:54.854Z,35.67
2018-02-10T01:49:22.407Z,45.07
2018-02-10T01:51:49.975Z,45.03
2018-02-10T01:54:17.590Z,40.30
2018-02-10T01:56:45.167Z,40.50
2018-02-10T01:59:12.759Z,42.30
2018-02-10T02:01:40.364Z,41.57
2018-02-10T02:04:07.954Z,41.43
2018-02-10T02:06:35.583Z,39.23
2018-02-10T02:09:03.178Z,44.20
2018-02-10T02:11:30.749Z,43.47
2018-02-10T02:13:58.379Z,41.63
2018-02-10T02:16:25.963Z,47.63
2018-02-10T02:18:53.575Z,40.87
2018-02-10T02:21:21.146Z,39.00
2018-02-10T02:23:48.731Z,45.33
2018-02-10T02:26:16.356Z,47.53
2018-02-10T02:28:43.957Z,39.27
2018-02-10T02:31:11.554Z,45.20
2018-02-10T02:33:39.196Z,43.30
2018-02-10T02:36:06.805Z,46.87
2018-02-10T02:38:34.421Z,45.13
2018-02-10T02:41:02.024Z,41.20
2018-02-10T02:43:29.618Z,41.93
2018-02-10T02:45:57.199Z,37.70
2018-02-10T02:48:24.823Z,35.60
2018-02-10T02:50:52.420Z,38.70
2018-02-10T02:53:20.027Z,40.57
2018-02-10T02:55:47.621Z,42.27
2018-02-10T02:58:15.216Z,41.97
2018-02-10T03:00:42.808Z,39.40
2018-02-10T03:03:10.377Z,43.27
2018-02-10T03:05:37.988Z,43.00
2018-02-10T03:08:05.577Z,40.00
2018-02-10T03:10:33.518Z,42.13
2018-02-10T03:13:01.266Z,40.37
2018-02-10T03:15:28.872Z,41.57
2018-02-10T03:17:56.462Z,39.23
2018-02-10T03:20:24.100Z,49.60
2018-02-10T03:22:51.674Z,39.37
2018-02-10T03:25:19.307Z,43.97
2018-02-10T03:27:46.926Z,39.37
2018-02-10T03:30:14.724Z,36.17
2018-02-10T03:32:42.316Z,42.33
2018-02-10T03:35:10.052Z,38.27
2018-02-10T03:37:37.640Z,36.67
2018-02-10T03:40:05.323Z,34.57
2018-02-10T03:42:32.892Z,39.70
2018-02-10T03:45:00.516Z,34.60
2018-02-10T03:47:28.098Z,31.70
2018-02-10T03:49:55.751Z,37.50
2018-02-10T03:52:23.345Z,42.73
2018-02-10T03:54:50.944Z,34.97
2018-02-10T03:57:18.548Z,41.73
2018-02-10T03:59:46.169Z,42.97
2018-02-10T04:02:13.743Z,44.03
2018-02-10T04:04:41.361Z,36.70
2018-02-10T04:07:08.971Z,40.97
2018-02-10T04:09:36.612Z,42.37
2018-02-10T04:12:04.218Z,37.93
2018-02-10T04:14:31.819Z,36.80
2018-02-10T04:16:59.453Z,39.53
2018-02-10T04:19:27.063Z,39.33
2018-02-10T04:21:54.676Z,40.07
2018-02-10T04:24:22.263Z,42.07
2018-02-10T04:26:50.210Z,35.80
2018-02-10T04:29:17.772Z,36.20
2018-02-10T04:31:45.383Z,34.57
2018-02-10T04:34:12.991Z,35.30
2018-02-10T04:36:40.605Z,32.87
2018-02-10T04:39:08.188Z,49.93
2018-02-10T04:41:35.777Z,47.07
2018-02-10T04:44:03.400Z,41.70
2018-02-10T04:46:31.038Z,36.67
2018-02-10T04:48:58.599Z,45.77
2018-02-10T04:51:26.196Z,43.50
2018-02-10T04:53:53.757Z,44.97
2018-02-10T04:56:21.399Z,38.10
2018-02-10T04:58:48.977Z,38.60
2018-02-10T05:01:16.589Z,38.40
2018-02-10T05:03:44.231Z,37.63
2018-02-10T05:06:11.945Z,39.03
2018-02-10T05:08:39.542Z,38.63
2018-02-10T05:11:07.128Z,42.07
2018-02-10T05:13:34.715Z,41.00
2018-02-10T05:16:02.316Z,38.50
2018-02-10T05:18:29.910Z,40.57
2018-02-10T05:20:57.478Z,40.63
2018-02-10T05:23:25.295Z,42.10
2018-02-10T05:25:52.908Z,44.33
2018-02-10T05:28:20.785Z,40.00
2018-02-10T05:30:48.437Z,53.07
2018-02-10T05:33:16.020Z,56.40
2018-02-10T05:35:43.582Z,57.33
2018-02-10T05:38:11.222Z,60.70
2018-02-10T05:40:38.784Z,62.60
2018-02-10T05:43:06.383Z,56.40
2018-02-10T05:45:33.962Z,63.67
2018-02-10T05:48:01.620Z,58.33
2018-02-10T05:50:29.248Z,52.50
2018-02-10T05:52:56.849Z,57.10
2018-02-10T05:55:24.455Z,54.60
2018-02-10T05:57:52.059Z,52.13
2018-02-10T06:00:19.645Z,52.20
2018-02-10T06:02:47.262Z,51.10
2018-02-10T06:05:14.834Z,45.00
2018-02-10T06:07:42.867Z,48.70
2018-02-10T06:10:10.501Z,45.40
2018-02-10T06:12:38.134Z,40.90
2018-02-10T06:15:05.729Z,45.43
2018-02-10T06:17:33.380Z,53.27
2018-02-10T06:20:00.940Z,45.47
2018-02-10T06:22:28.549Z,45.33
2018-02-10T06:24:56.519Z,36.33
2018-02-10T06:27:24.155Z,44.53
2018-02-10T06:29:51.777Z,37.97
2018-02-10T06:32:19.370Z,38.90
2018-02-10T06:34:46.970Z,33.30
2018-02-10T06:37:14.566Z,33.03
2018-02-10T06:39:42.168Z,31.57
2018-02-10T06:42:09.779Z,27.80
2018-02-10T06:44:37.644Z,31.03
2018-02-10T06:47:05.274Z,29.57
2018-02-10T06:49:32.891Z,25.73
2018-02-10T06:52:00.461Z,28.53
2018-02-10T06:54:28.059Z,28.57
2018-02-10T06:56:55.611Z,27.43
2018-02-10T06:59:23.201Z,30.60
2018-02-10T07:01:50.820Z,21.53
2018-02-10T07:04:18.435Z,28.17
2018-02-10T07:06:46.021Z,31.30
2018-02-10T07:09:13.633Z,27.33
2018-02-10T07:11:41.231Z,24.80
2018-02-10T07:14:08.818Z,27.43
2018-02-10T07:16:36.456Z,26.07
2018-02-10T07:19:04.070Z,28.13
2018-02-10T07:21:31.707Z,22.73
2018-02-10T07:23:59.279Z,21.77
2018-02-10T07:26:26.827Z,25.27
2018-02-10T07:28:54.449Z,23.07
2018-02-10T07:31:22.043Z,19.23
2018-02-10T07:33:49.602Z,24.13
2018-02-10T07:36:17.243Z,23.67
2018-02-10T07:38:44.835Z,21.37
2018-02-10T07:41:12.451Z,20.27
2018-02-10T07:43:40.071Z,23.93
2018-02-10T07:46:07.748Z,23.40
2018-02-10T07:48:35.394Z,22.47
2018-02-10T07:51:02.975Z,22.93
2018-02-10T07:53:30.600Z,25.07
2018-02-10T07:55:58.261Z,23.37
2018-02-10T07:58:26.689Z,24.17
2018-02-10T08:00:54.355Z,21.20
2018-02-10T08:03:21.992Z,26.73
2018-02-10T08:05:49.794Z,23.17
2018-02-10T08:08:17.366Z,22.30
2018-02-10T08:10:44.987Z,24.93
2018-02-10T08:13:13.002Z,21.50
2018-02-10T08:15:40.603Z,21.43
2018-02-10T08:18:08.194Z,23.70
2018-02-10T08:20:35.829Z,22.17
2018-02-10T08:23:03.434Z,20.53
2018-02-10T08:25:31.066Z,22.97
2018-02-10T08:27:58.625Z,20.57
2018-02-10T08:30:26.244Z,20.63
2018-02-10T08:32:53.825Z,20.47
2018-02-10T08:35:21.444Z,20.80
2018-02-10T08:37:49.035Z,20.57
2018-02-10T08:40:16.643Z,19.60
2018-02-10T08:42:44.243Z,21.40
2018-02-10T08:45:11.882Z,18.60
2018-02-10T08:47:39.453Z,20.20
2018-02-10T08:50:07.031Z,19.70
2018-02-10T08:52:34.724Z,19.30
2018-02-10T08:55:02.302Z,19.83
2018-02-10T08:57:29.900Z,18.73
2018-02-10T08:59:57.483Z,18.20
2018-02-10T09:02:25.602Z,18.23
2018-02-10T09:04:53.202Z,19.63
2018-02-10T09:07:20.800Z,18.20
2018-02-10T09:09:48.387Z,19.63
2018-02-10T09:12:15.969Z,20.87
2018-02-10T09:14:43.567Z,20.90
2018-02-10T09:17:11.258Z,20.30
2018-02-10T09:19:38.844Z,20.80
2018-02-10T09:22:06.493Z,21.93
2018-02-10T09:24:34.084Z,20.27
2018-02-10T09:27:01.681Z,19.80
2018-02-10T09:29:29.286Z,24.50
2018-02-10T09:31:56.916Z,21.83
2018-02-10T09:34:24.503Z,18.77
2018-02-10T09:36:52.106Z,20.10
2018-02-10T09:39:19.672Z,20.13
2018-02-10T09:41:47.270Z,22.10
2018-02-10T09:44:14.863Z,23.83
2018-02-10T09:46:42.472Z,20.07
2018-02-10T09:49:10.048Z,22.10
2018-02-10T09:51:38.035Z,22.03
2018-02-10T09:54:05.649Z,21.03
2018-02-10T09:56:33.203Z,21.90
2018-02-10T09:59:00.811Z,22.30
2018-02-10T10:01:28.402Z,18.53
2018-02-10T10:03:56.190Z,22.20
2018-02-10T10:06:23.831Z,22.37
2018-02-10T10:08:51.431Z,23.77
2018-02-10T10:11:18.998Z,22.77
2018-02-10T10:13:46.612Z,20.13
2018-02-10T10:16:14.205Z,22.03
2018-02-10T10:18:41.888Z,26.10
2018-02-10T10:21:09.528Z,23.50
2018-02-10T10:23:37.187Z,23.83
2018-02-10T10:26:04.758Z,22.73
2018-02-10T10:28:32.359Z,22.77
2018-02-10T10:30:59.922Z,18.53
2018-02-10T10:33:27.523Z,22.80
2018-02-10T10:35:55.264Z,25.80
2018-02-10T10:38:22.874Z,21.17
2018-02-10T10:40:50.871Z,20.97
2018-02-10T10:43:18.497Z,22.77
2018-02-10T10:45:46.092Z,24.60
2018-02-10T10:48:13.687Z,25.00
2018-02-10T10:50:41.275Z,18.90
2018-02-10T10:53:09.258Z,21.97
2018-02-10T10:55:36.872Z,22.20
2018-02-10T10:58:04.551Z,27.27
2018-02-10T11:00:32.144Z,24.80
2018-02-10T11:02:59.986Z,21.50
2018-02-10T11:05:27.622Z,23.43
2018-02-10T11:07:55.227Z,23.27
2018-02-10T11:10:22.826Z,23.13
2018-02-10T11:12:50.443Z,22.33
2018-02-10T11:15:18.038Z,25.43
2018-02-10T11:17:45.595Z,24.83
2018-02-10T11:20:13.203Z,33.77
2018-02-10T11:22:40.838Z,25.33
2018-02-10T11:25:08.472Z,25.77
2018-02-10T11:27:36.121Z,23.30
2018-02-10T11:30:03.758Z,23.53
2018-02-10T11:32:31.586Z,23.80
2018-02-10T11:34:59.216Z,22.23
2018-02-10T11:37:26.869Z,22.83
2018-02-10T11:39:54.504Z,27.37
2018-02-10T11:42:22.105Z,22.00
2018-02-10T11:44:49.772Z,22.30
2018-02-10T11:47:17.330Z,23.70
2018-02-10T11:49:44.957Z,21.67
2018-02-10T11:52:12.540Z,24.80
2018-02-10T11:54:40.167Z,21.90
2018-02-10T11:57:07.764Z,21.40
2018-02-10T11:59:35.375Z,23.47
2018-02-10T12:02:02.994Z,23.63
2018-02-10T12:04:30.832Z,21.67
2018-02-10T12:06:58.479Z,20.43
2018-02-10T12:09:26.135Z,22.10
2018-02-10T12:11:53.711Z,24.77
2018-02-10T12:14:21.329Z,26.30
2018-02-10T12:16:48.915Z,27.23
2018-02-10T12:19:16.584Z,25.23
2018-02-10T12:21:44.151Z,24.60
2018-02-10T12:24:11.726Z,23.20
2018-02-10T12:26:39.339Z,27.73
2018-02-10T12:29:06.931Z,29.33
2018-02-10T12:31:34.588Z,25.13
2018-02-10T12:34:02.223Z,24.57
2018-02-10T12:36:29.821Z,23.87
2018-02-10T12:38:57.619Z,21.17
2018-02-10T12:41:25.211Z,22.87
2018-02-10T12:43:52.809Z,21.00
2018-02-10T12:46:20.446Z,23.70
2018-02-10T12:48:53.772Z,21.70
2018-02-10T12:51:21.408Z,20.73
2018-02-10T12:53:49.044Z,23.87
2018-02-10T12:56:17.838Z,21.87
2018-02-10T12:58:46.376Z,20.77
2018-02-10T13:01:13.987Z,24.57
2018-02-10T13:03:41.574Z,19.07
2018-02-10T13:06:09.715Z,25.33
2018-02-10T13:08:37.354Z,19.60
2018-02-10T13:11:04.976Z,18.17
2018-02-10T13:13:32.569Z,21.97
2018-02-10T13:16:00.356Z,20.93
2018-02-10T13:18:27.954Z,15.47
2018-02-10T13:20:55.595Z,19.67
2018-02-10T13:23:23.162Z,16.40
2018-02-10T13:25:50.756Z,15.40
2018-02-10T13:28:18.326Z,16.37
2018-02-10T13:30:45.901Z,16.00
2018-02-10T13:33:13.516Z,16.87
2018-02-10T13:35:41.265Z,16.83
2018-02-10T13:38:08.903Z,17.67
2018-02-10T13:40:36.477Z,16.63
2018-02-10T13:43:04.119Z,14.90
2018-02-10T13:45:31.688Z,15.27
2018-02-10T13:47:59.307Z,14.30
2018-02-10T13:50:26.903Z,17.57
2018-02-10T13:52:54.690Z,17.23
2018-02-10T13:55:22.259Z,18.47
2018-02-10T13:57:50.296Z,20.10
2018-02-10T14:00:17.850Z,18.60
2018-02-10T14:02:45.475Z,19.57
2018-02-10T14:05:13.067Z,15.80
2018-02-10T14:07:40.720Z,19.37
2018-02-10T14:10:08.305Z,17.27
2018-02-10T14:12:35.899Z,15.00
2018-02-10T14:15:03.492Z,16.07
2018-02-10T14:17:31.194Z,20.70
2018-02-10T14:19:58.912Z,15.77
2018-02-10T14:22:26.505Z,14.93
2018-02-10T14:24:54.116Z,17.33
2018-02-10T14:27:21.892Z,15.30
2018-02-10T14:29:49.472Z,15.90
2018-02-10T14:32:17.097Z,18.97
2018-02-10T14:34:44.694Z,16.47
2018-02-10T14:37:12.277Z,16.50
2018-02-10T14:39:39.889Z,13.57
2018-02-10T14:42:07.492Z,13.27
2018-02-10T14:44:35.091Z,16.67
2018-02-10T14:47:02.725Z,16.57
2018-02-10T14:49:30.295Z,14.67
2018-02-10T14:51:57.935Z,15.70
2018-02-10T14:54:25.514Z,13.67
2018-02-10T14:56:53.095Z,12.13
2018-02-10T14:59:20.687Z,14.67
2018-02-10T15:01:48.292Z,12.50
2018-02-10T15:04:15.900Z,16.00
2018-02-10T15:06:43.487Z,11.77
2018-02-10T15:09:11.097Z,11.87
2018-02-10T15:11:38.736Z,13.27
2018-02-10T15:14:06.354Z,9.37
2018-02-10T15:16:33.919Z,9.87
2018-02-10T15:19:01.511Z,10.57
2018-02-10T15:21:29.126Z,11.73
2018-02-10T15:23:56.716Z,9.90
2018-02-10T15:26:24.294Z,8.07
2018-02-10T15:28:51.955Z,8.37
2018-02-10T15:31:25.144Z,11.37
2018-02-10T15:36:58.552Z,7.97
2018-02-10T15:39:26.149Z,12.00
2018-02-10T15:41:53.719Z,9.00
2018-02-10T15:44:21.344Z,5.77
2018-02-10T15:46:48.917Z,7.63
2018-02-10T15:49:16.573Z,6.97
2018-02-10T15:51:44.155Z,7.13
2018-02-10T15:54:11.780Z,5.93
2018-02-10T15:56:39.372Z,5.50
2018-02-10T15:59:06.976Z,6.53
2018-02-10T16:01:34.587Z,6.77
2018-02-10T16:04:02.199Z,6.00
2018-02-10T16:06:29.820Z,6.80
2018-02-10T16:08:57.425Z,7.43
2018-02-10T16:11:25.002Z,8.33
2018-02-10T16:13:52.595Z,8.13
2018-02-10T16:16:20.220Z,7.33
2018-02-10T16:18:47.816Z,10.00
2018-02-10T16:21:15.435Z,7.83
2018-02-10T16:23:43.023Z,5.50
2018-02-10T16:26:10.620Z,10.10
2018-02-10T16:28:38.174Z,10.07
2018-02-10T16:31:05.766Z,5.93
2018-02-10T16:33:33.352Z,6.80
2018-02-10T16:36:00.927Z,9.60
2018-02-10T16:38:28.517Z,6.37
2018-02-10T16:40:56.130Z,7.10
2018-02-10T16:43:23.706Z,8.07
2018-02-10T16:45:51.735Z,7.43
2018-02-10T16:48:19.384Z,6.50
2018-02-10T16:50:47.026Z,7.27
2018-02-10T16:53:14.611Z,8.27
2018-02-10T16:55:42.209Z,9.73
2018-02-10T16:58:09.787Z,6.40
2018-02-10T17:00:37.388Z,6.33
2018-02-10T17:03:04.991Z,9.57
2018-02-10T17:05:32.578Z,7.87
2018-02-10T17:08:00.204Z,10.93
2018-02-10T17:10:27.779Z,8.77
2018-02-10T17:12:55.803Z,10.17
2018-02-10T17:15:23.402Z,8.67
2018-02-10T17:17:50.983Z,11.23
2018-02-10T17:20:18.572Z,12.40
2018-02-10T17:22:46.167Z,10.13
2018-02-10T17:25:13.757Z,10.43
2018-02-10T17:27:41.348Z,8.37
2018-02-10T17:30:08.943Z,9.43
2018-02-10T17:32:36.538Z,9.03
2018-02-10T17:35:04.139Z,9.10
2018-02-10T17:37:31.739Z,9.23
2018-02-10T17:39:59.356Z,11.70
2018-02-10T17:42:26.940Z,9.30
2018-02-10T17:44:54.504Z,11.13
2018-02-10T17:47:22.427Z,10.40
2018-02-10T17:49:50.036Z,9.63
2018-02-10T17:52:17.668Z,8.83
2018-02-10T17:54:45.251Z,10.93
2018-02-10T17:57:12.864Z,12.97
2018-02-10T17:59:40.507Z,9.60
2018-02-10T18:02:08.120Z,8.70
2018-02-10T18:04:35.734Z,10.17
2018-02-10T18:07:03.497Z,10.33
2018-02-10T18:09:31.076Z,9.27
2018-02-10T18:11:58.706Z,8.30
2018-02-10T18:14:26.312Z,21.50
2018-02-10T18:16:53.956Z,13.67
2018-02-10T18:19:21.499Z,10.13
2018-02-10T18:21:49.100Z,14.63
2018-02-10T18:24:16.688Z,10.60
2018-02-10T18:26:44.292Z,9.10
2018-02-10T18:29:11.870Z,9.27
2018-02-10T18:31:39.491Z,10.57
2018-02-10T18:34:07.055Z,11.03
2018-02-10T18:36:34.665Z,9.80
2018-02-10T18:39:02.262Z,8.93
2018-02-10T18:41:29.861Z,8.30
2018-02-10T18:43:57.503Z,10.43
2018-02-10T18:46:25.124Z,8.97
2018-02-10T18:48:52.774Z,11.67
2018-02-10T18:51:20.373Z,11.20
2018-02-10T18:53:47.944Z,14.33
2018-02-10T18:56:15.558Z,13.10
2018-02-10T18:58:43.182Z,10.83
2018-02-10T19:01:10.775Z,10.53
2018-02-10T19:03:38.397Z,9.13
2018-02-10T19:06:05.983Z,13.73
2018-02-10T19:08:33.608Z,11.93
2018-02-10T19:11:01.216Z,11.17
2018-02-10T19:13:28.818Z,13.20
2018-02-10T19:15:56.376Z,10.87
2018-02-10T19:18:23.977Z,10.00
2018-02-10T19:20:51.576Z,10.77
2018-02-10T19:23:19.164Z,8.57
2018-02-10T19:25:46.784Z,11.43
2018-02-10T19:28:14.656Z,10.77
2018-02-10T19:30:42.247Z,11.40
2018-02-10T19:33:10.009Z,8.80
2018-02-10T19:35:37.572Z,9.73
2018-02-10T19:38:05.211Z,11.73
2018-02-10T19:40:32.772Z,10.30
2018-02-10T19:43:00.401Z,11.17
2018-02-10T19:45:27.993Z,10.57
2018-02-10T19:47:55.613Z,13.10
2018-02-10T19:50:23.200Z,13.40
2018-02-10T19:52:51.343Z,10.07
2018-02-10T19:55:18.935Z,11.27
2018-02-10T19:57:46.683Z,10.33
2018-02-10T20:00:14.275Z,14.03
2018-02-10T20:02:41.872Z,18.03
2018-02-10T20:05:09.463Z,13.40
2018-02-10T20:07:37.114Z,10.33
2018-02-10T20:10:04.683Z,10.73
2018-02-10T20:12:32.254Z,12.53
2018-02-10T20:14:59.886Z,12.03
2018-02-10T20:17:27.453Z,10.17
2018-02-10T20:19:55.026Z,10.57
2018-02-10T20:22:22.659Z,11.67
2018-02-10T20:24:50.681Z,11.60
2018-02-10T20:27:18.265Z,12.33
2018-02-10T20:29:45.866Z,13.43
2018-02-10T20:32:13.483Z,9.07
2018-02-10T20:34:41.122Z,10.43
2018-02-10T20:37:08.709Z,9.93
2018-02-10T20:39:36.378Z,11.43
2018-02-10T20:42:03.983Z,12.60
2018-02-10T20:44:31.959Z,11.17
2018-02-10T20:46:59.581Z,11.20
2018-02-10T20:49:27.174Z,10.07
2018-02-10T20:51:54.767Z,12.80
2018-02-10T20:54:22.349Z,14.87
2018-02-10T20:56:49.911Z,9.73
2018-02-10T20:59:17.523Z,12.40
2018-02-10T21:01:45.084Z,11.40
2018-02-10T21:04:13.096Z,12.43
2018-02-10T21:06:40.681Z,13.77
2018-02-10T21:09:08.276Z,13.47
2018-02-10T21:11:35.853Z,12.90
2018-02-10T21:14:03.443Z,12.97
2018-02-10T21:16:31.010Z,11.17
2018-02-10T21:18:58.635Z,11.23
2018-02-10T21:21:26.230Z,12.87
2018-02-10T21:23:53.832Z,12.87
2018-02-10T21:26:21.432Z,13.30
2018-02-10T21:28:49.027Z,12.23
2018-02-10T21:31:16.662Z,11.27
2018-02-10T21:33:44.277Z,11.70
2018-02-10T21:36:11.873Z,12.03
2018-02-10T21:38:39.723Z,15.43
2018-02-10T21:41:07.324Z,12.30
2018-02-10T21:43:34.915Z,15.37
2018-02-10T21:46:02.715Z,12.13
2018-02-10T21:48:30.360Z,14.00
2018-02-10T21:50:57.923Z,12.17
2018-02-10T21:53:25.697Z,10.37
2018-02-10T21:55:53.296Z,15.07
2018-02-10T21:58:20.927Z,13.53
2018-02-10T22:00:48.580Z,13.47
2018-02-10T22:03:16.148Z,13.30
2018-02-10T22:05:43.759Z,11.63
2018-02-10T22:08:11.382Z,13.80
2018-02-10T22:10:38.974Z,14.00
2018-02-10T22:13:06.527Z,17.50
2018-02-10T22:15:34.858Z,14.37
2018-02-10T22:18:02.452Z,11.03
2018-02-10T22:20:30.458Z,10.97
2018-02-10T22:22:58.101Z,10.43
2018-02-10T22:25:25.712Z,13.03
2018-02-10T22:27:53.331Z,11.83
2018-02-10T22:30:20.966Z,11.23
2018-02-10T22:32:48.616Z,12.17
2018-02-10T22:35:16.267Z,11.90
2018-02-10T22:37:43.863Z,10.23
2018-02-10T22:40:11.460Z,9.47
2018-02-10T22:42:39.102Z,8.97
2018-02-10T22:45:06.723Z,8.70
2018-02-10T22:47:34.767Z,10.53
2018-02-10T22:50:02.391Z,11.10
2018-02-10T22:52:30.000Z,8.43
2018-02-10T22:54:57.596Z,8.60
2018-02-10T22:57:25.213Z,8.67
2018-02-10T22:59:52.804Z,8.03
2018-02-10T23:02:20.494Z,9.53
2018-02-10T23:04:48.142Z,9.80
2018-02-10T23:07:15.764Z,8.40
2018-02-10T23:09:43.395Z,6.63
2018-02-10T23:12:11.000Z,7.93
2018-02-10T23:14:38.650Z,8.03
2018-02-10T23:17:06.255Z,7.93
2018-02-10T23:19:33.855Z,7.40
2018-02-10T23:22:01.449Z,7.20
2018-02-10T23:24:29.086Z,7.53
2018-02-10T23:26:56.711Z,8.30
2018-02-10T23:29:24.352Z,10.27
2018-02-10T23:31:52.935Z,9.47
2018-02-10T23:34:20.519Z,7.13
2018-02-10T23:36:48.126Z,8.23
2018-02-10T23:39:15.700Z,8.07
2018-02-10T23:41:43.469Z,7.47
2018-02-10T23:44:11.053Z,9.97
2018-02-10T23:46:38.765Z,7.80
2018-02-10T23:49:06.347Z,10.63
2018-02-10T23:51:33.905Z,8.20
2018-02-10T23:54:01.503Z,7.93
2018-02-10T23:56:29.047Z,9.57
2018-02-10T23:58:56.667Z,8.40
